createdAt,value
2023-07-08T00:02:13.521Z,3.40
2023-07-08T00:04:41.284Z,2.90
2023-07-08T00:07:14.195Z,2.95
2023-07-08T00:09:41.095Z,2.85
2023-07-08T00:12:13.910Z,3.10
2023-07-08T00:14:41.350Z,3.15
2023-07-08T00:17:13.742Z,3.05
2023-07-08T00:19:40.804Z,2.80
2023-07-08T00:22:15.410Z,2.80
2023-07-08T00:24:45.437Z,2.85
2023-07-08T00:27:14.327Z,2.58
2023-07-08T00:29:41.050Z,2.47
2023-07-08T00:32:14.833Z,2.60
2023-07-08T00:34:42.651Z,2.50
2023-07-08T00:37:12.587Z,2.75
2023-07-08T00:39:40.326Z,2.60
2023-07-08T00:42:27.010Z,2.75
2023-07-08T00:44:54.062Z,2.92
2023-07-08T00:47:21.282Z,2.50
2023-07-08T00:49:54.353Z,2.70
2023-07-08T00:52:29.259Z,2.38
2023-07-08T00:54:59.955Z,2.60
2023-07-08T00:57:32.408Z,2.55
2023-07-08T01:00:06.479Z,2.65
2023-07-08T01:02:37.204Z,2.67
2023-07-08T01:05:16.935Z,2.63
2023-07-08T01:07:46.788Z,2.70
2023-07-08T01:12:51.893Z,2.70
2023-07-08T01:15:18.860Z,2.63
2023-07-08T01:17:47.189Z,2.60
2023-07-08T01:20:15.867Z,2.95
2023-07-08T01:22:43.957Z,3.10
2023-07-08T01:25:12.727Z,2.80
2023-07-08T01:27:43.316Z,2.92
2023-07-08T01:30:12.004Z,2.67
2023-07-08T01:32:44.475Z,2.97
2023-07-08T01:35:13.798Z,2.70
2023-07-08T01:37:43.583Z,2.38
2023-07-08T01:42:49.353Z,3.33
2023-07-08T01:45:19.446Z,2.67
2023-07-08T01:47:51.858Z,3.10
2023-07-08T01:50:20.222Z,2.60
2023-07-08T01:52:49.441Z,3.35
2023-07-08T01:55:16.542Z,2.45
2023-07-08T01:57:43.411Z,2.85
2023-07-08T02:00:11.059Z,3.08
2023-07-08T02:02:40.980Z,2.80
2023-07-08T02:05:08.129Z,2.53
2023-07-08T02:07:34.918Z,3.33
2023-07-08T02:10:01.680Z,2.80
2023-07-08T02:12:28.697Z,2.72
2023-07-08T02:14:55.594Z,2.65
2023-07-08T02:17:22.471Z,3.10
2023-07-08T02:19:49.234Z,3.10
2023-07-08T02:22:17.123Z,2.80
2023-07-08T02:24:44.149Z,3.13
2023-07-08T02:27:11.058Z,2.72
2023-07-08T02:29:39.271Z,2.90
2023-07-08T02:32:06.515Z,2.85
2023-07-08T02:34:34.148Z,3.13
2023-07-08T02:37:01.211Z,2.72
2023-07-08T02:39:28.091Z,3.03
2023-07-08T02:41:56.147Z,3.00
2023-07-08T02:44:23.117Z,3.28
2023-07-08T02:46:49.907Z,3.00
2023-07-08T02:49:17.147Z,2.67
2023-07-08T02:51:43.901Z,3.22
2023-07-08T02:54:10.745Z,3.47
2023-07-08T02:56:37.539Z,2.85
2023-07-08T02:59:04.400Z,2.90
2023-07-08T03:01:32.125Z,3.33
2023-07-08T03:04:01.510Z,3.30
2023-07-08T03:06:29.024Z,3.40
2023-07-08T03:08:55.915Z,2.85
2023-07-08T03:11:22.851Z,3.03
2023-07-08T03:13:49.678Z,3.20
2023-07-08T03:16:16.472Z,3.25
2023-07-08T03:18:47.590Z,3.35
2023-07-08T03:21:17.222Z,3.30
2023-07-08T03:23:44.287Z,3.08
2023-07-08T03:26:18.193Z,3.53
2023-07-08T03:28:47.925Z,3.35
2023-07-08T03:31:16.157Z,2.72
2023-07-08T03:33:43.806Z,3.20
2023-07-08T03:36:26.390Z,2.75
2023-07-08T03:38:55.268Z,3.13
2023-07-08T03:41:22.079Z,3.20
2023-07-08T03:43:51.696Z,2.63
2023-07-08T03:46:21.105Z,3.03
2023-07-08T03:48:48.612Z,2.80
2023-07-08T03:51:27.068Z,3.35
2023-07-08T03:53:54.481Z,3.35
2023-07-08T03:56:23.651Z,2.97
2023-07-08T03:58:52.091Z,3.28
2023-07-08T04:01:24.694Z,3.28
2023-07-08T04:03:57.498Z,2.90
2023-07-08T04:06:25.774Z,2.83
2023-07-08T04:08:53.227Z,2.90
2023-07-08T04:11:22.399Z,2.90
2023-07-08T04:13:50.513Z,2.92
2023-07-08T04:16:31.451Z,2.92
2023-07-08T04:18:58.804Z,3.30
2023-07-08T04:21:26.348Z,2.80
2023-07-08T04:23:53.442Z,2.75
2023-07-08T04:26:20.440Z,2.97
2023-07-08T04:28:47.652Z,3.20
2023-07-08T04:31:14.628Z,3.13
2023-07-08T04:33:41.551Z,3.00
2023-07-08T04:36:14.814Z,3.17
2023-07-08T04:38:43.169Z,2.90
2023-07-08T04:41:10.317Z,2.95
2023-07-08T04:43:37.341Z,2.83
2023-07-08T04:46:06.514Z,3.33
2023-07-08T04:48:34.043Z,3.00
2023-07-08T04:51:01.316Z,3.00
2023-07-08T04:53:28.393Z,2.85
2023-07-08T04:55:57.185Z,3.22
2023-07-08T04:58:24.428Z,3.00
2023-07-08T05:00:51.278Z,2.97
2023-07-08T05:03:18.404Z,2.80
2023-07-08T05:05:45.256Z,2.90
2023-07-08T05:08:13.249Z,3.10
2023-07-08T05:10:40.636Z,2.65
2023-07-08T05:13:07.477Z,2.95
2023-07-08T05:15:34.567Z,2.58
2023-07-08T05:18:01.463Z,2.70
2023-07-08T05:20:28.341Z,2.90
2023-07-08T05:22:55.215Z,2.85
2023-07-08T05:25:22.101Z,3.15
2023-07-08T05:27:49.356Z,3.20
2023-07-08T05:30:18.951Z,2.70
2023-07-08T05:32:46.531Z,2.95
2023-07-08T05:35:13.510Z,2.72
2023-07-08T05:37:41.403Z,2.65
2023-07-08T05:40:11.491Z,2.80
2023-07-08T05:42:38.554Z,3.17
2023-07-08T05:45:11.246Z,3.15
2023-07-08T05:47:38.847Z,3.33
2023-07-08T05:50:06.412Z,2.83
2023-07-08T05:52:33.276Z,3.10
2023-07-08T05:55:00.183Z,2.85
2023-07-08T05:57:27.104Z,3.15
2023-07-08T05:59:54.051Z,3.13
2023-07-08T06:02:22.916Z,3.20
2023-07-08T06:04:49.917Z,3.43
2023-07-08T06:07:17.883Z,2.50
2023-07-08T06:09:45.322Z,3.72
2023-07-08T06:12:13.105Z,3.58
2023-07-08T06:14:40.239Z,3.53
2023-07-08T06:17:07.537Z,3.22
2023-07-08T06:19:34.768Z,3.40
2023-07-08T06:22:19.762Z,3.58
2023-07-08T06:24:48.892Z,3.50
2023-07-08T06:27:15.817Z,3.22
2023-07-08T06:29:42.646Z,3.70
2023-07-08T06:32:09.914Z,3.78
2023-07-08T06:34:37.096Z,3.47
2023-07-08T06:37:03.949Z,3.40
2023-07-08T06:39:30.709Z,3.30
2023-07-08T06:41:57.596Z,3.67
2023-07-08T06:44:29.238Z,3.50
2023-07-08T06:46:56.107Z,3.70
2023-07-08T06:49:22.901Z,3.80
2023-07-08T06:51:49.772Z,3.78
2023-07-08T06:54:16.573Z,3.50
2023-07-08T06:56:43.371Z,3.70
2023-07-08T06:59:10.859Z,3.15
2023-07-08T07:01:40.663Z,3.55
2023-07-08T07:04:07.459Z,3.85
2023-07-08T07:06:34.322Z,3.72
2023-07-08T07:09:01.266Z,3.60
2023-07-08T07:11:29.242Z,3.45
2023-07-08T07:13:56.055Z,3.92
2023-07-08T07:16:23.864Z,3.60
2023-07-08T07:18:52.885Z,3.70
2023-07-08T07:21:20.014Z,4.20
2023-07-08T07:23:46.980Z,3.95
2023-07-08T07:26:14.138Z,3.58
2023-07-08T07:28:41.012Z,4.30
2023-07-08T07:31:08.444Z,4.40
2023-07-08T07:33:35.490Z,4.40
2023-07-08T07:36:02.583Z,3.85
2023-07-08T07:38:31.605Z,4.40
2023-07-08T07:41:01.158Z,4.05
2023-07-08T07:43:28.298Z,4.43
2023-07-08T07:45:55.160Z,3.80
2023-07-08T07:48:21.963Z,4.22
2023-07-08T07:50:50.746Z,4.05
2023-07-08T07:53:18.539Z,3.95
2023-07-08T07:55:45.587Z,3.70
2023-07-08T07:58:15.257Z,4.22
2023-07-08T08:00:42.101Z,4.30
2023-07-08T08:03:09.039Z,4.00
2023-07-08T08:05:35.936Z,4.43
2023-07-08T08:08:05.058Z,4.28
2023-07-08T08:10:33.776Z,3.47
2023-07-08T08:13:00.669Z,4.05
2023-07-08T08:15:27.537Z,3.78
2023-07-08T08:17:54.689Z,4.18
2023-07-08T08:20:25.043Z,3.90
2023-07-08T08:22:52.018Z,3.50
2023-07-08T08:25:20.816Z,4.22
2023-07-08T08:27:47.588Z,4.10
2023-07-08T08:30:14.433Z,4.07
2023-07-08T08:32:41.281Z,4.05
2023-07-08T08:35:08.550Z,3.78
2023-07-08T08:37:35.757Z,4.10
2023-07-08T08:40:03.391Z,3.78
2023-07-08T08:42:47.715Z,3.80
2023-07-08T08:45:19.052Z,4.00
2023-07-08T08:47:48.577Z,4.15
2023-07-08T08:50:49.945Z,3.67
2023-07-08T08:53:19.261Z,4.18
2023-07-08T08:55:53.068Z,4.00
2023-07-08T08:58:58.279Z,4.35
2023-07-08T09:01:26.295Z,3.65
2023-07-08T09:04:02.961Z,3.92
2023-07-08T09:06:35.324Z,4.13
2023-07-08T09:09:17.892Z,4.00
2023-07-08T09:12:04.359Z,3.88
2023-07-08T09:14:34.720Z,4.10
2023-07-08T09:17:23.222Z,3.90
2023-07-08T09:20:23.033Z,4.20
2023-07-08T09:22:52.791Z,4.10
2023-07-08T09:25:41.855Z,4.00
2023-07-08T09:28:09.157Z,3.95
2023-07-08T09:30:36.159Z,3.78
2023-07-08T09:33:09.611Z,4.00
2023-07-08T09:35:42.711Z,4.00
2023-07-08T09:38:15.561Z,3.97
2023-07-08T09:40:48.061Z,3.83
2023-07-08T09:43:26.289Z,4.10
2023-07-08T09:45:59.191Z,4.05
2023-07-08T09:48:29.709Z,4.00
2023-07-08T09:50:59.749Z,3.95
2023-07-08T09:53:28.193Z,3.92
2023-07-08T09:55:58.006Z,3.90
2023-07-08T09:58:31.916Z,3.30
2023-07-08T10:01:02.187Z,3.70
2023-07-08T10:03:35.434Z,3.97
2023-07-08T10:06:17.930Z,3.75
2023-07-08T10:08:45.750Z,3.83
2023-07-08T10:11:18.548Z,4.05
2023-07-08T10:14:07.603Z,3.72
2023-07-08T10:16:39.950Z,4.05
2023-07-08T10:19:16.854Z,3.70
2023-07-08T10:22:12.681Z,4.03
2023-07-08T10:25:13.810Z,4.55
2023-07-08T10:27:59.335Z,5.10
2023-07-08T10:30:38.849Z,3.42
2023-07-08T10:33:14.566Z,3.90
2023-07-08T10:35:54.555Z,3.90
2023-07-08T10:38:40.943Z,4.22
2023-07-08T10:41:30.225Z,4.72
2023-07-08T10:46:43.510Z,5.32
2023-07-08T10:49:35.113Z,4.15
2023-07-08T10:52:26.516Z,3.78
2023-07-08T10:55:11.662Z,4.03
2023-07-08T10:58:11.121Z,4.05
2023-07-08T11:00:52.835Z,3.88
2023-07-08T11:03:28.987Z,4.18
2023-07-08T11:06:09.851Z,4.13
2023-07-08T11:08:49.188Z,3.78
2023-07-08T11:14:05.535Z,4.28
2023-07-08T11:16:42.474Z,3.88
2023-07-08T11:19:20.482Z,3.63
2023-07-08T11:21:50.038Z,4.47
2023-07-08T11:24:29.022Z,3.78
2023-07-08T11:27:01.414Z,3.97
2023-07-08T11:29:37.315Z,3.95
2023-07-08T11:32:06.776Z,3.65
2023-07-08T11:34:35.708Z,4.00
2023-07-08T11:37:03.877Z,3.40
2023-07-08T11:39:39.952Z,3.67
2023-07-08T11:42:24.110Z,3.78
2023-07-08T11:44:59.533Z,3.72
2023-07-08T11:47:38.749Z,3.90
2023-07-08T11:52:55.597Z,3.65
2023-07-08T11:55:30.927Z,4.13
2023-07-08T11:58:01.370Z,3.78
2023-07-08T12:00:33.560Z,3.92
2023-07-08T12:03:19.677Z,3.85
2023-07-08T12:05:47.386Z,3.60
2023-07-08T12:08:16.775Z,3.20
2023-07-08T12:10:52.919Z,3.00
2023-07-08T12:13:26.070Z,3.20
2023-07-08T12:15:54.512Z,3.90
2023-07-08T12:18:26.643Z,2.95
2023-07-08T12:20:59.143Z,3.20
2023-07-08T12:23:28.035Z,3.00
2023-07-08T12:25:55.908Z,3.50
2023-07-08T12:28:24.176Z,2.70
2023-07-08T12:30:51.870Z,3.13
2023-07-08T12:33:33.617Z,2.90
2023-07-08T12:36:02.530Z,3.30
2023-07-08T12:38:34.925Z,2.90
2023-07-08T12:41:13.148Z,3.05
2023-07-08T12:43:40.329Z,3.20
2023-07-08T12:46:11.267Z,2.90
2023-07-08T12:48:40.038Z,3.03
2023-07-08T12:51:12.664Z,3.67
2023-07-08T12:53:39.482Z,2.92
2023-07-08T12:56:07.420Z,2.75
2023-07-08T12:58:41.515Z,2.80
2023-07-08T13:01:11.328Z,2.80
2023-07-08T13:03:43.609Z,2.67
2023-07-08T13:06:12.777Z,2.67
2023-07-08T13:08:40.576Z,2.08
2023-07-08T13:11:08.032Z,2.58
2023-07-08T13:13:47.328Z,2.38
2023-07-08T13:16:14.371Z,2.55
2023-07-08T13:18:42.889Z,2.10
2023-07-08T13:21:13.685Z,2.00
2023-07-08T13:23:40.857Z,2.15
2023-07-08T13:26:34.198Z,2.10
2023-07-08T13:29:22.802Z,2.30
2023-07-08T13:31:54.555Z,2.08
2023-07-08T13:34:25.613Z,2.08
2023-07-08T13:36:53.712Z,2.20
2023-07-08T13:39:36.155Z,2.40
2023-07-08T13:42:03.846Z,2.30
2023-07-08T13:44:31.308Z,1.90
2023-07-08T13:47:01.082Z,1.98
2023-07-08T13:49:43.192Z,1.92
2023-07-08T13:52:13.260Z,1.90
2023-07-08T13:54:47.791Z,2.00
2023-07-08T13:57:19.518Z,2.03
2023-07-08T13:59:46.308Z,2.28
2023-07-08T14:02:26.007Z,2.25
2023-07-08T14:04:54.109Z,2.42
2023-07-08T14:07:24.456Z,2.20
2023-07-08T14:09:51.511Z,2.33
2023-07-08T14:12:18.252Z,2.33
2023-07-08T14:14:45.165Z,2.28
2023-07-08T14:17:20.541Z,2.25
2023-07-08T14:19:47.658Z,2.53
2023-07-08T14:22:16.864Z,2.50
2023-07-08T14:24:44.189Z,2.58
2023-07-08T14:27:13.623Z,2.50
2023-07-08T14:29:44.855Z,2.58
2023-07-08T14:32:21.305Z,2.30
2023-07-08T14:34:56.099Z,2.35
2023-07-08T14:37:23.543Z,2.28
2023-07-08T14:39:50.825Z,2.45
2023-07-08T14:42:19.981Z,2.47
2023-07-08T14:44:49.650Z,2.50
2023-07-08T14:47:20.688Z,2.50
2023-07-08T14:49:47.930Z,2.45
2023-07-08T14:52:15.065Z,2.30
2023-07-08T14:54:41.953Z,2.35
2023-07-08T14:57:11.874Z,2.17
2023-07-08T14:59:39.869Z,2.20
2023-07-08T15:02:22.649Z,2.60
2023-07-08T15:04:49.599Z,2.55
2023-07-08T15:07:16.366Z,2.45
2023-07-08T15:09:43.394Z,2.97
2023-07-08T15:12:12.649Z,1.90
2023-07-08T15:17:20.081Z,2.40
2023-07-08T15:19:47.127Z,2.65
2023-07-08T15:22:14.155Z,1.92
2023-07-08T15:24:41.054Z,2.53
2023-07-08T15:27:12.464Z,2.38
2023-07-08T15:29:39.539Z,2.40
2023-07-08T15:32:32.528Z,2.55
2023-07-08T15:35:00.643Z,2.30
2023-07-08T15:37:27.407Z,2.40
2023-07-08T15:39:54.258Z,2.80
2023-07-08T15:42:21.269Z,2.45
2023-07-08T15:44:53.105Z,2.65
2023-07-08T15:47:20.290Z,2.30
2023-07-08T15:49:47.354Z,2.50
2023-07-08T15:52:14.152Z,2.30
2023-07-08T15:54:40.866Z,2.60
2023-07-08T15:57:15.238Z,2.50
2023-07-08T15:59:42.897Z,2.13
2023-07-08T16:02:31.240Z,2.42
2023-07-08T16:04:58.354Z,2.10
2023-07-08T16:07:25.268Z,2.25
2023-07-08T16:09:52.036Z,2.15
2023-07-08T16:12:22.777Z,2.08
2023-07-08T16:14:49.808Z,1.85
2023-07-08T16:17:16.865Z,2.20
2023-07-08T16:19:43.866Z,1.92
2023-07-08T16:22:11.358Z,2.20
2023-07-08T16:24:38.259Z,2.50
2023-07-08T16:27:05.894Z,2.15
2023-07-08T16:29:33.726Z,2.25
2023-07-08T16:32:00.709Z,2.05
2023-07-08T16:34:27.654Z,2.17
2023-07-08T16:36:54.346Z,2.30
2023-07-08T16:39:21.376Z,2.45
2023-07-08T16:41:48.136Z,2.80
2023-07-08T16:44:17.091Z,2.80
2023-07-08T16:46:44.950Z,2.20
2023-07-08T16:49:12.470Z,2.30
2023-07-08T16:51:39.836Z,2.40
2023-07-08T16:54:18.456Z,1.95
2023-07-08T16:56:46.770Z,1.98
2023-07-08T16:59:15.219Z,2.38
2023-07-08T17:01:42.623Z,2.20
2023-07-08T17:06:41.536Z,2.72
2023-07-08T17:09:11.919Z,2.47
2023-07-08T17:11:38.674Z,2.15
2023-07-08T17:14:05.421Z,1.83
2023-07-08T17:16:35.522Z,1.90
2023-07-08T17:19:02.774Z,2.17
2023-07-08T17:21:29.583Z,2.20
2023-07-08T17:23:56.380Z,2.17
2023-07-08T17:26:23.135Z,3.00
2023-07-08T17:28:51.049Z,3.70
2023-07-08T17:31:33.854Z,3.80
2023-07-08T17:34:22.238Z,3.30
2023-07-08T17:36:49.780Z,2.90
2023-07-08T17:39:17.091Z,2.72
2023-07-08T17:41:46.030Z,2.70
2023-07-08T17:44:12.803Z,3.13
2023-07-08T17:46:39.688Z,2.85
2023-07-08T17:49:11.904Z,2.60
2023-07-08T17:51:40.144Z,2.35
2023-07-08T17:54:13.757Z,2.85
2023-07-08T17:56:44.623Z,2.75
2023-07-08T17:59:17.037Z,2.55
2023-07-08T18:01:46.379Z,2.50
2023-07-08T18:06:40.702Z,4.20
2023-07-08T18:09:08.160Z,4.15
2023-07-08T18:11:46.427Z,4.20
2023-07-08T18:14:13.718Z,3.60
2023-07-08T18:16:41.534Z,2.97
2023-07-08T18:19:10.553Z,2.88
2023-07-08T18:21:37.424Z,2.70
2023-07-08T18:24:04.551Z,3.08
2023-07-08T18:26:34.087Z,3.25
2023-07-08T18:29:02.569Z,4.47
2023-07-08T18:31:36.445Z,3.17
2023-07-08T18:34:06.885Z,3.03
2023-07-08T18:36:34.623Z,3.50
2023-07-08T18:39:01.608Z,3.20
2023-07-08T18:41:32.685Z,3.30
2023-07-08T18:43:59.556Z,3.58
2023-07-08T18:46:26.528Z,3.00
2023-07-08T18:48:53.422Z,2.92
2023-07-08T18:51:26.973Z,3.30
2023-07-08T18:53:53.681Z,3.67
2023-07-08T18:56:20.398Z,3.20
2023-07-08T18:58:47.997Z,3.20
2023-07-08T19:01:17.522Z,2.88
2023-07-08T19:03:45.467Z,3.08
2023-07-08T19:06:16.325Z,3.28
2023-07-08T19:08:45.301Z,3.00
2023-07-08T19:11:20.788Z,2.80
2023-07-08T19:13:48.258Z,2.88
2023-07-08T19:16:18.071Z,3.60
2023-07-08T19:18:46.303Z,3.40
2023-07-08T19:21:20.815Z,3.28
2023-07-08T19:23:51.145Z,3.30
2023-07-08T19:26:20.292Z,2.63
2023-07-08T19:28:47.419Z,2.95
2023-07-08T19:31:19.456Z,3.10
2023-07-08T19:33:47.299Z,3.33
2023-07-08T19:36:14.556Z,2.80
2023-07-08T19:38:42.527Z,3.20
2023-07-08T19:41:12.746Z,3.10
2023-07-08T19:43:41.510Z,3.25
2023-07-08T19:46:16.511Z,3.08
2023-07-08T19:48:44.828Z,3.30
2023-07-08T19:51:12.865Z,3.10
2023-07-08T19:53:39.688Z,3.17
2023-07-08T19:56:24.373Z,3.33
2023-07-08T19:58:51.894Z,3.00
2023-07-08T20:01:19.230Z,2.65
2023-07-08T20:03:46.037Z,2.80
2023-07-08T20:06:18.632Z,3.47
2023-07-08T20:08:46.330Z,2.70
2023-07-08T20:11:13.830Z,3.00
2023-07-08T20:13:41.095Z,3.20
2023-07-08T20:16:23.035Z,3.22
2023-07-08T20:18:52.346Z,3.17
2023-07-08T20:21:19.589Z,3.03
2023-07-08T20:23:46.428Z,2.78
2023-07-08T20:26:33.925Z,2.63
2023-07-08T20:29:00.912Z,3.10
2023-07-08T20:31:28.784Z,2.92
2023-07-08T20:33:55.798Z,2.53
2023-07-08T20:36:25.101Z,3.10
2023-07-08T20:38:52.144Z,3.58
2023-07-08T20:41:19.040Z,3.10
2023-07-08T20:43:45.984Z,2.92
2023-07-08T20:46:23.477Z,3.00
2023-07-08T20:48:54.241Z,2.67
2023-07-08T20:51:22.607Z,3.17
2023-07-08T20:53:49.354Z,2.95
2023-07-08T20:56:18.774Z,3.08
2023-07-08T20:58:46.053Z,3.78
2023-07-08T21:01:12.862Z,3.60
2023-07-08T21:03:43.061Z,3.22
2023-07-08T21:06:16.242Z,3.30
2023-07-08T21:08:43.067Z,3.33
2023-07-08T21:11:11.922Z,3.10
2023-07-08T21:13:41.555Z,2.80
2023-07-08T21:16:18.023Z,3.85
2023-07-08T21:18:45.107Z,3.10
2023-07-08T21:21:12.552Z,3.20
2023-07-08T21:23:40.777Z,2.97
2023-07-08T21:26:28.603Z,3.15
2023-07-08T21:28:59.472Z,3.45
2023-07-08T21:31:26.385Z,3.30
2023-07-08T21:33:53.195Z,3.28
2023-07-08T21:36:25.331Z,2.83
2023-07-08T21:38:54.422Z,3.40
2023-07-08T21:41:21.520Z,3.35
2023-07-08T21:43:48.668Z,2.97
2023-07-08T21:46:15.527Z,2.97
2023-07-08T21:48:42.269Z,2.75
2023-07-08T21:51:39.430Z,2.80
2023-07-08T21:54:06.863Z,3.30
2023-07-08T21:56:34.125Z,3.33
2023-07-08T21:59:00.918Z,3.25
2023-07-08T22:01:34.076Z,3.30
2023-07-08T22:04:02.054Z,3.72
2023-07-08T22:06:29.173Z,3.40
2023-07-08T22:08:56.024Z,3.25
2023-07-08T22:11:34.345Z,3.10
2023-07-08T22:14:01.687Z,3.42
2023-07-08T22:16:31.008Z,3.40
2023-07-08T22:18:58.697Z,3.50
2023-07-08T22:21:31.241Z,3.45
2023-07-08T22:24:06.282Z,3.53
2023-07-08T22:26:39.175Z,3.72
2023-07-08T22:29:06.045Z,3.45
2023-07-08T22:31:36.216Z,3.78
2023-07-08T22:34:04.092Z,3.50
2023-07-08T22:36:31.027Z,3.60
2023-07-08T22:39:09.662Z,3.65
2023-07-08T22:41:51.468Z,3.40
2023-07-08T22:44:18.941Z,3.90
2023-07-08T22:46:46.790Z,3.42
2023-07-08T22:49:24.453Z,4.00
2023-07-08T22:51:56.084Z,3.30
2023-07-08T22:54:23.362Z,3.53
2023-07-08T22:56:50.424Z,3.75
2023-07-08T22:59:17.143Z,3.22
2023-07-08T23:01:45.011Z,3.53
2023-07-08T23:04:12.256Z,3.70
2023-07-08T23:06:39.496Z,3.30
2023-07-08T23:09:06.411Z,3.90
2023-07-08T23:11:33.224Z,3.58
2023-07-08T23:14:00.043Z,4.05
2023-07-08T23:16:29.973Z,3.97
2023-07-08T23:19:01.859Z,3.95
2023-07-08T23:21:30.459Z,3.50
2023-07-08T23:23:57.777Z,4.20
2023-07-08T23:26:27.095Z,4.30
2023-07-08T23:28:56.392Z,4.03
2023-07-08T23:31:23.440Z,4.07
2023-07-08T23:33:50.668Z,3.83
2023-07-08T23:36:37.552Z,4.10
2023-07-08T23:39:13.133Z,3.90
2023-07-08T23:41:40.058Z,3.80
2023-07-08T23:44:06.828Z,3.88
2023-07-08T23:46:35.096Z,3.60
2023-07-08T23:49:14.537Z,3.67
2023-07-08T23:51:41.431Z,3.65
2023-07-08T23:54:25.168Z,3.75
2023-07-08T23:56:58.186Z,3.72
2023-07-08T23:59:31.420Z,3.50
